This is the latest recevied weather packets stored in our database for station/object KA7RLM. If no packets are shown the sender has not sent any weather packets the latest 10 day(s).
| Time | Temp. | Humidity | Pressure | Rain* | Wind** | Luminosity | Snow |
|---|---|---|---|---|---|---|---|
| 1777880426 | 16.11° C | 68% | 1009.7 hPa | 0 mm | - | - | - |
| 1777876816 | 17.22° C | 62% | 1009.6 hPa | 0 mm | - | - | - |
| 1777876219 | 17.22° C | 62% | 1009.6 hPa | 0 mm | - | - | - |
| 1777875616 | 17.78° C | 61% | 1009.5 hPa | 0 mm | - | - | - |
| 1777872025 | 18.89° C | 58% | 1009.7 hPa | 0 mm | - | - | - |
| 1777870826 | 19.44° C | 55% | 1009.6 hPa | 0 mm | - | - | - |
| 1777869632 | 20.56° C | 50% | 1009.6 hPa | 0 mm | - | - | - |
| 1777869017 | 20.56° C | 50% | 1009.6 hPa | 0 mm | - | - | - |
| 1777868440 | 20.56° C | 50% | 1009.4 hPa | 0 mm | - | - | - |
| 1777867825 | 21.11° C | 48% | 1009.4 hPa | 0 mm | - | - | - |
| 1777864225 | 23.89° C | 43% | 1009.2 hPa | 0 mm | - | - | - |
| 1777855232 | 28.33° C | 38% | 1009.7 hPa | 0 mm | - | - | - |
| 1777851629 | 28.33° C | 38% | 1010.2 hPa | 0 mm | - | - | - |
| 1777851045 | 28.33° C | 39% | 1010.4 hPa | 0 mm | - | - | - |
| 1777850416 | 28.33° C | 39% | 1010.5 hPa | 0 mm | - | - | - |
| 1777848028 | 27.78° C | 40% | 1011 hPa | 0 mm | - | - | - |
| 1777845623 | 27.22° C | 43% | 1011.5 hPa | 0 mm | - | - | - |
| 1777843832 | 26.67° C | 43% | 1011.7 hPa | 0 mm | - | - | - |
| 1777843251 | 27.22° C | 44% | 1011.8 hPa | 0 mm | - | - | - |
| 1777839029 | 25.56° C | 50% | 1012.5 hPa | 0 mm | - | - | - |
| 1777838427 | 24.44° C | 50% | 1012.7 hPa | 0 mm | - | - | - |
| 1777829417 | 21.11° C | 63% | 1014.2 hPa | 0 mm | - | - | - |
| 1777824023 | 18.89° C | 71% | 1014.4 hPa | 0 mm | - | - | - |
| 1777821619 | 16.11° C | 84% | 1014.4 hPa | 0 mm | - | - | - |
| 1777821022 | 15° C | 88% | 1014.4 hPa | 0 mm | - | - | - |
* Rain latest hour (hover to see other rain measurements)
** Current wind speed in m/s (hover to see current wind gust speed)